sensor_id;sensor_type;location;lat;lon;timestamp;temperature;humidity
17178;DHT22;8704;52.006;4.374;2024-01-30T00:01:09;8.00;1.00
17178;DHT22;8704;52.006;4.374;2024-01-30T00:03:38;7.70;57.90
17178;DHT22;8704;52.006;4.374;2024-01-30T00:06:07;7.70;99.90
17178;DHT22;8704;52.006;4.374;2024-01-30T00:08:35;7.70;98.30
17178;DHT22;8704;52.006;4.374;2024-01-30T00:11:04;8.10;99.90
17178;DHT22;8704;52.006;4.374;2024-01-30T00:13:32;7.90;99.90
17178;DHT22;8704;52.006;4.374;2024-01-30T00:16:01;8.00;99.90
17178;DHT22;8704;52.006;4.374;2024-01-30T00:18:30;7.70;99.90
17178;DHT22;8704;52.006;4.374;2024-01-30T00:20:59;8.10;99.90
17178;DHT22;8704;52.006;4.374;2024-01-30T00:23:27;7.60;99.90
17178;DHT22;8704;52.006;4.374;2024-01-30T00:25:55;7.90;99.90
17178;DHT22;8704;52.006;4.374;2024-01-30T00:28:23;8.50;99.90
17178;DHT22;8704;52.006;4.374;2024-01-30T00:30:52;7.70;99.90
17178;DHT22;8704;52.006;4.374;2024-01-30T00:33:21;8.90;99.90
17178;DHT22;8704;52.006;4.374;2024-01-30T00:35:49;8.30;99.90
17178;DHT22;8704;52.006;4.374;2024-01-30T00:38:18;8.20;99.90
17178;DHT22;8704;52.006;4.374;2024-01-30T00:40:46;8.20;99.90
17178;DHT22;8704;52.006;4.374;2024-01-30T00:43:13;7.90;99.90
17178;DHT22;8704;52.006;4.374;2024-01-30T00:45:41;7.80;99.90
17178;DHT22;8704;52.006;4.374;2024-01-30T00:48:11;8.00;99.90
17178;DHT22;8704;52.006;4.374;2024-01-30T00:50:40;7.90;99.90
17178;DHT22;8704;52.006;4.374;2024-01-30T00:53:08;7.90;99.90
17178;DHT22;8704;52.006;4.374;2024-01-30T00:55:36;8.90;99.90
17178;DHT22;8704;52.006;4.374;2024-01-30T00:58:05;8.20;99.90
17178;DHT22;8704;52.006;4.374;2024-01-30T01:00:33;8.00;99.90
17178;DHT22;8704;52.006;4.374;2024-01-30T01:03:01;7.70;1.00
17178;DHT22;8704;52.006;4.374;2024-01-30T01:05:29;7.90;1.00
17178;DHT22;8704;52.006;4.374;2024-01-30T01:08:01;8.40;99.90
17178;DHT22;8704;52.006;4.374;2024-01-30T01:10:29;8.20;99.90
17178;DHT22;8704;52.006;4.374;2024-01-30T01:12:57;7.90;99.90
17178;DHT22;8704;52.006;4.374;2024-01-30T01:15:25;8.70;99.90
17178;DHT22;8704;52.006;4.374;2024-01-30T01:17:56;8.10;99.90
17178;DHT22;8704;52.006;4.374;2024-01-30T01:20:24;8.10;99.90
17178;DHT22;8704;52.006;4.374;2024-01-30T01:22:53;8.10;15.50
17178;DHT22;8704;52.006;4.374;2024-01-30T01:25:22;8.70;99.90
17178;DHT22;8704;52.006;4.374;2024-01-30T01:27:51;8.40;78.40
17178;DHT22;8704;52.006;4.374;2024-01-30T01:30:19;7.80;1.00
17178;DHT22;8704;52.006;4.374;2024-01-30T01:32:49;8.10;1.00
17178;DHT22;8704;52.006;4.374;2024-01-30T01:35:22;8.50;1.00
17178;DHT22;8704;52.006;4.374;2024-01-30T01:37:51;8.20;1.00
17178;DHT22;8704;52.006;4.374;2024-01-30T01:40:26;8.00;1.00
17178;DHT22;8704;52.006;4.374;2024-01-30T01:42:55;8.00;1.00
17178;DHT22;8704;52.006;4.374;2024-01-30T01:45:24;8.80;1.00
17178;DHT22;8704;52.006;4.374;2024-01-30T01:47:52;8.60;99.90
17178;DHT22;8704;52.006;4.374;2024-01-30T01:50:21;8.60;1.00
17178;DHT22;8704;52.006;4.374;2024-01-30T01:52:50;8.70;99.90
17178;DHT22;8704;52.006;4.374;2024-01-30T01:55:20;8.70;1.00
17178;DHT22;8704;52.006;4.374;2024-01-30T01:57:53;8.80;99.90
17178;DHT22;8704;52.006;4.374;2024-01-30T02:00:21;8.60;1.00
17178;DHT22;8704;52.006;4.374;2024-01-30T02:02:50;8.50;64.90
17178;DHT22;8704;52.006;4.374;2024-01-30T02:05:18;8.70;1.00
17178;DHT22;8704;52.006;4.374;2024-01-30T02:07:47;8.80;1.00
17178;DHT22;8704;52.006;4.374;2024-01-30T02:10:15;9.00;59.80
17178;DHT22;8704;52.006;4.374;2024-01-30T02:12:44;8.90;32.50
17178;DHT22;8704;52.006;4.374;2024-01-30T02:15:14;8.50;1.00
17178;DHT22;8704;52.006;4.374;2024-01-30T02:17:43;8.80;1.00
17178;DHT22;8704;52.006;4.374;2024-01-30T02:20:11;8.90;1.00
17178;DHT22;8704;52.006;4.374;2024-01-30T02:22:41;8.50;99.90
17178;DHT22;8704;52.006;4.374;2024-01-30T02:25:11;8.80;99.90
17178;DHT22;8704;52.006;4.374;2024-01-30T02:27:39;8.60;99.90
17178;DHT22;8704;52.006;4.374;2024-01-30T02:30:08;9.00;99.90
17178;DHT22;8704;52.006;4.374;2024-01-30T02:32:36;8.50;99.90
17178;DHT22;8704;52.006;4.374;2024-01-30T02:35:04;8.50;99.90
17178;DHT22;8704;52.006;4.374;2024-01-30T02:37:32;8.50;99.90
17178;DHT22;8704;52.006;4.374;2024-01-30T02:40:02;8.60;6.70
17178;DHT22;8704;52.006;4.374;2024-01-30T02:42:30;8.50;25.60
17178;DHT22;8704;52.006;4.374;2024-01-30T02:44:58;8.50;1.00
17178;DHT22;8704;52.006;4.374;2024-01-30T02:47:27;8.90;1.00
17178;DHT22;8704;52.006;4.374;2024-01-30T02:49:55;8.60;1.00
17178;DHT22;8704;52.006;4.374;2024-01-30T02:52:23;8.50;1.00
17178;DHT22;8704;52.006;4.374;2024-01-30T02:54:52;8.60;1.00
17178;DHT22;8704;52.006;4.374;2024-01-30T02:57:21;8.90;1.00
17178;DHT22;8704;52.006;4.374;2024-01-30T02:59:49;8.40;1.00
17178;DHT22;8704;52.006;4.374;2024-01-30T03:02:17;8.70;1.00
17178;DHT22;8704;52.006;4.374;2024-01-30T03:04:46;9.20;1.00
17178;DHT22;8704;52.006;4.374;2024-01-30T03:07:14;8.90;1.00
17178;DHT22;8704;52.006;4.374;2024-01-30T03:09:43;9.00;1.00
17178;DHT22;8704;52.006;4.374;2024-01-30T03:12:11;8.90;1.00
17178;DHT22;8704;52.006;4.374;2024-01-30T03:14:41;8.60;1.00
17178;DHT22;8704;52.006;4.374;2024-01-30T03:17:09;8.80;1.00
17178;DHT22;8704;52.006;4.374;2024-01-30T03:19:37;9.10;1.00
17178;DHT22;8704;52.006;4.374;2024-01-30T03:22:05;8.60;1.00
17178;DHT22;8704;52.006;4.374;2024-01-30T03:24:33;8.70;1.00
17178;DHT22;8704;52.006;4.374;2024-01-30T03:27:02;8.90;27.10
17178;DHT22;8704;52.006;4.374;2024-01-30T03:29:30;8.50;1.00
17178;DHT22;8704;52.006;4.374;2024-01-30T03:31:59;9.00;1.00
17178;DHT22;8704;52.006;4.374;2024-01-30T03:34:27;9.40;1.00
17178;DHT22;8704;52.006;4.374;2024-01-30T03:36:55;9.10;1.00
17178;DHT22;8704;52.006;4.374;2024-01-30T03:39:24;9.00;1.00
17178;DHT22;8704;52.006;4.374;2024-01-30T03:41:52;8.70;1.00
17178;DHT22;8704;52.006;4.374;2024-01-30T03:44:20;9.40;1.00
17178;DHT22;8704;52.006;4.374;2024-01-30T03:46:49;9.50;99.90
17178;DHT22;8704;52.006;4.374;2024-01-30T03:49:18;8.70;1.00
17178;DHT22;8704;52.006;4.374;2024-01-30T03:51:46;9.10;99.90
17178;DHT22;8704;52.006;4.374;2024-01-30T03:54:15;8.90;5.80
17178;DHT22;8704;52.006;4.374;2024-01-30T03:56:43;9.30;1.00
17178;DHT22;8704;52.006;4.374;2024-01-30T03:59:12;8.70;1.00
17178;DHT22;8704;52.006;4.374;2024-01-30T04:01:40;9.80;1.00
17178;DHT22;8704;52.006;4.374;2024-01-30T04:04:08;9.40;99.90
17178;DHT22;8704;52.006;4.374;2024-01-30T04:06:37;9.20;60.60
17178;DHT22;8704;52.006;4.374;2024-01-30T04:09:06;8.80;99.90
17178;DHT22;8704;52.006;4.374;2024-01-30T04:11:34;8.80;99.90
17178;DHT22;8704;52.006;4.374;2024-01-30T04:14:02;9.10;99.90
17178;DHT22;8704;52.006;4.374;2024-01-30T04:16:30;8.80;1.00
17178;DHT22;8704;52.006;4.374;2024-01-30T04:18:58;8.70;99.90
17178;DHT22;8704;52.006;4.374;2024-01-30T04:21:26;9.30;26.90
17178;DHT22;8704;52.006;4.374;2024-01-30T04:23:56;9.00;1.00
17178;DHT22;8704;52.006;4.374;2024-01-30T04:26:24;9.00;99.90
17178;DHT22;8704;52.006;4.374;2024-01-30T04:28:52;9.00;99.90
17178;DHT22;8704;52.006;4.374;2024-01-30T04:31:20;9.00;99.80
17178;DHT22;8704;52.006;4.374;2024-01-30T04:33:49;8.90;1.00
17178;DHT22;8704;52.006;4.374;2024-01-30T04:36:17;9.30;1.00
17178;DHT22;8704;52.006;4.374;2024-01-30T04:38:45;8.70;99.90
17178;DHT22;8704;52.006;4.374;2024-01-30T04:41:14;9.50;1.00
17178;DHT22;8704;52.006;4.374;2024-01-30T04:43:43;9.30;99.90
17178;DHT22;8704;52.006;4.374;2024-01-30T04:46:11;9.30;99.90
17178;DHT22;8704;52.006;4.374;2024-01-30T04:48:39;9.40;24.00
17178;DHT22;8704;52.006;4.374;2024-01-30T04:51:07;9.70;99.90
17178;DHT22;8704;52.006;4.374;2024-01-30T04:53:35;9.20;1.00
17178;DHT22;8704;52.006;4.374;2024-01-30T04:56:05;9.30;1.00
17178;DHT22;8704;52.006;4.374;2024-01-30T04:58:35;9.00;1.00
17178;DHT22;8704;52.006;4.374;2024-01-30T05:01:03;9.00;1.00
17178;DHT22;8704;52.006;4.374;2024-01-30T05:03:33;9.00;1.00
17178;DHT22;8704;52.006;4.374;2024-01-30T05:06:02;9.10;1.00
17178;DHT22;8704;52.006;4.374;2024-01-30T05:08:30;9.00;1.00
17178;DHT22;8704;52.006;4.374;2024-01-30T05:11:00;9.10;1.00
17178;DHT22;8704;52.006;4.374;2024-01-30T05:13:28;9.10;1.00
17178;DHT22;8704;52.006;4.374;2024-01-30T05:15:57;9.40;1.00
17178;DHT22;8704;52.006;4.374;2024-01-30T05:18:26;9.10;1.00
17178;DHT22;8704;52.006;4.374;2024-01-30T05:20:54;9.10;1.00
17178;DHT22;8704;52.006;4.374;2024-01-30T05:23:22;9.60;1.00
17178;DHT22;8704;52.006;4.374;2024-01-30T05:25:50;9.70;99.90
17178;DHT22;8704;52.006;4.374;2024-01-30T05:28:18;9.40;99.90
17178;DHT22;8704;52.006;4.374;2024-01-30T05:30:46;9.40;99.90
17178;DHT22;8704;52.006;4.374;2024-01-30T05:33:16;9.10;99.90
17178;DHT22;8704;52.006;4.374;2024-01-30T05:35:44;9.20;53.90
17178;DHT22;8704;52.006;4.374;2024-01-30T05:38:12;9.50;88.20
17178;DHT22;8704;52.006;4.374;2024-01-30T05:40:40;9.30;99.90
17178;DHT22;8704;52.006;4.374;2024-01-30T05:43:08;9.20;99.90
17178;DHT22;8704;52.006;4.374;2024-01-30T05:45:37;9.40;1.00
17178;DHT22;8704;52.006;4.374;2024-01-30T05:48:05;9.30;99.90
17178;DHT22;8704;52.006;4.374;2024-01-30T05:50:34;9.10;42.10
17178;DHT22;8704;52.006;4.374;2024-01-30T05:53:03;9.30;99.90
17178;DHT22;8704;52.006;4.374;2024-01-30T05:55:31;9.30;99.90
17178;DHT22;8704;52.006;4.374;2024-01-30T05:58:00;9.80;99.90
17178;DHT22;8704;52.006;4.374;2024-01-30T06:00:28;9.10;99.90
17178;DHT22;8704;52.006;4.374;2024-01-30T06:02:56;9.10;1.00
17178;DHT22;8704;52.006;4.374;2024-01-30T06:05:24;9.30;99.90
17178;DHT22;8704;52.006;4.374;2024-01-30T06:07:54;9.20;99.90
17178;DHT22;8704;52.006;4.374;2024-01-30T06:10:22;9.40;99.90
17178;DHT22;8704;52.006;4.374;2024-01-30T06:12:50;9.30;99.90
17178;DHT22;8704;52.006;4.374;2024-01-30T06:15:18;9.30;99.90
17178;DHT22;8704;52.006;4.374;2024-01-30T06:17:47;9.30;99.90
17178;DHT22;8704;52.006;4.374;2024-01-30T06:20:16;9.80;99.90
17178;DHT22;8704;52.006;4.374;2024-01-30T06:22:44;9.30;99.90
17178;DHT22;8704;52.006;4.374;2024-01-30T06:25:14;9.50;99.90
17178;DHT22;8704;52.006;4.374;2024-01-30T06:27:43;9.40;5.90
17178;DHT22;8704;52.006;4.374;2024-01-30T06:30:12;9.50;16.30
17178;DHT22;8704;52.006;4.374;2024-01-30T06:32:40;9.30;1.00
17178;DHT22;8704;52.006;4.374;2024-01-30T06:35:08;9.30;54.80
17178;DHT22;8704;52.006;4.374;2024-01-30T06:37:37;9.80;99.90
17178;DHT22;8704;52.006;4.374;2024-01-30T06:40:06;9.60;99.90
17178;DHT22;8704;52.006;4.374;2024-01-30T06:42:36;9.40;99.90
17178;DHT22;8704;52.006;4.374;2024-01-30T06:45:05;9.70;1.00
17178;DHT22;8704;52.006;4.374;2024-01-30T06:47:34;9.60;1.00
17178;DHT22;8704;52.006;4.374;2024-01-30T06:50:03;9.80;1.00
17178;DHT22;8704;52.006;4.374;2024-01-30T06:52:31;10.10;1.00
17178;DHT22;8704;52.006;4.374;2024-01-30T06:54:59;10.10;1.00
17178;DHT22;8704;52.006;4.374;2024-01-30T06:57:27;10.10;1.00
17178;DHT22;8704;52.006;4.374;2024-01-30T06:59:58;10.20;1.00
17178;DHT22;8704;52.006;4.374;2024-01-30T07:02:26;9.70;1.00
17178;DHT22;8704;52.006;4.374;2024-01-30T07:04:54;9.70;1.00
17178;DHT22;8704;52.006;4.374;2024-01-30T07:07:23;9.80;1.00
17178;DHT22;8704;52.006;4.374;2024-01-30T07:09:52;9.90;1.00
17178;DHT22;8704;52.006;4.374;2024-01-30T07:12:23;9.70;1.00
17178;DHT22;8704;52.006;4.374;2024-01-30T07:14:52;10.10;1.00
17178;DHT22;8704;52.006;4.374;2024-01-30T07:17:23;9.80;1.00
17178;DHT22;8704;52.006;4.374;2024-01-30T07:19:52;10.10;99.90
17178;DHT22;8704;52.006;4.374;2024-01-30T07:22:20;10.90;99.90
17178;DHT22;8704;52.006;4.374;2024-01-30T07:24:48;9.80;99.90
17178;DHT22;8704;52.006;4.374;2024-01-30T07:27:17;10.00;99.90
17178;DHT22;8704;52.006;4.374;2024-01-30T07:29:45;10.40;99.90
17178;DHT22;8704;52.006;4.374;2024-01-30T07:32:14;10.00;99.90
17178;DHT22;8704;52.006;4.374;2024-01-30T07:34:43;10.00;99.90
17178;DHT22;8704;52.006;4.374;2024-01-30T07:37:29;10.30;1.00
17178;DHT22;8704;52.006;4.374;2024-01-30T07:39:57;9.80;99.90
17178;DHT22;8704;52.006;4.374;2024-01-30T07:42:25;10.00;1.00
17178;DHT22;8704;52.006;4.374;2024-01-30T07:44:53;10.10;1.00
17178;DHT22;8704;52.006;4.374;2024-01-30T07:47:21;10.50;1.00
17178;DHT22;8704;52.006;4.374;2024-01-30T07:49:50;10.00;1.00
17178;DHT22;8704;52.006;4.374;2024-01-30T07:52:19;10.40;1.00
17178;DHT22;8704;52.006;4.374;2024-01-30T07:54:50;10.10;1.00
17178;DHT22;8704;52.006;4.374;2024-01-30T07:57:19;10.00;1.00
17178;DHT22;8704;52.006;4.374;2024-01-30T07:59:47;10.20;1.00
17178;DHT22;8704;52.006;4.374;2024-01-30T08:02:16;10.20;99.90
17178;DHT22;8704;52.006;4.374;2024-01-30T08:04:44;10.10;99.90
17178;DHT22;8704;52.006;4.374;2024-01-30T08:07:17;10.30;99.90
17178;DHT22;8704;52.006;4.374;2024-01-30T08:09:45;10.10;99.90
17178;DHT22;8704;52.006;4.374;2024-01-30T08:12:13;10.00;1.00
17178;DHT22;8704;52.006;4.374;2024-01-30T08:14:41;10.10;1.00
17178;DHT22;8704;52.006;4.374;2024-01-30T08:17:09;10.20;1.00
17178;DHT22;8704;52.006;4.374;2024-01-30T08:19:37;10.20;99.90
17178;DHT22;8704;52.006;4.374;2024-01-30T08:22:06;10.30;99.90
17178;DHT22;8704;52.006;4.374;2024-01-30T08:24:38;10.40;99.90
17178;DHT22;8704;52.006;4.374;2024-01-30T08:27:07;10.30;99.90
17178;DHT22;8704;52.006;4.374;2024-01-30T08:29:36;10.20;99.90
17178;DHT22;8704;52.006;4.374;2024-01-30T08:32:05;10.20;99.90
17178;DHT22;8704;52.006;4.374;2024-01-30T08:34:33;10.20;99.90
17178;DHT22;8704;52.006;4.374;2024-01-30T08:37:02;10.20;1.00
17178;DHT22;8704;52.006;4.374;2024-01-30T08:39:30;10.20;1.00
17178;DHT22;8704;52.006;4.374;2024-01-30T08:42:00;10.20;1.00
17178;DHT22;8704;52.006;4.374;2024-01-30T08:44:28;10.20;1.00
17178;DHT22;8704;52.006;4.374;2024-01-30T08:46:56;10.10;1.00
17178;DHT22;8704;52.006;4.374;2024-01-30T08:49:26;10.20;1.00
17178;DHT22;8704;52.006;4.374;2024-01-30T08:51:54;10.70;1.00
17178;DHT22;8704;52.006;4.374;2024-01-30T08:54:23;10.80;1.00
17178;DHT22;8704;52.006;4.374;2024-01-30T08:56:51;10.30;1.00
17178;DHT22;8704;52.006;4.374;2024-01-30T08:59:21;10.40;1.00
17178;DHT22;8704;52.006;4.374;2024-01-30T09:01:49;10.40;1.00
17178;DHT22;8704;52.006;4.374;2024-01-30T09:04:33;10.90;1.00
17178;DHT22;8704;52.006;4.374;2024-01-30T09:07:01;10.40;1.00
17178;DHT22;8704;52.006;4.374;2024-01-30T09:09:29;10.50;1.00
17178;DHT22;8704;52.006;4.374;2024-01-30T09:11:57;10.80;1.00
17178;DHT22;8704;52.006;4.374;2024-01-30T09:14:32;10.60;1.00
17178;DHT22;8704;52.006;4.374;2024-01-30T09:17:00;10.40;1.00
17178;DHT22;8704;52.006;4.374;2024-01-30T09:19:30;10.40;99.90
17178;DHT22;8704;52.006;4.374;2024-01-30T09:21:58;10.40;99.90
17178;DHT22;8704;52.006;4.374;2024-01-30T09:24:27;10.30;99.90
17178;DHT22;8704;52.006;4.374;2024-01-30T09:26:55;10.30;99.90
17178;DHT22;8704;52.006;4.374;2024-01-30T09:29:24;10.40;99.90
17178;DHT22;8704;52.006;4.374;2024-01-30T09:31:54;10.40;99.90
17178;DHT22;8704;52.006;4.374;2024-01-30T09:34:22;10.40;99.90
17178;DHT22;8704;52.006;4.374;2024-01-30T09:36:50;10.40;99.90
17178;DHT22;8704;52.006;4.374;2024-01-30T09:39:18;10.20;99.90
17178;DHT22;8704;52.006;4.374;2024-01-30T09:41:49;10.30;99.90
17178;DHT22;8704;52.006;4.374;2024-01-30T09:44:20;10.50;32.40
17178;DHT22;8704;52.006;4.374;2024-01-30T09:46:49;10.30;1.00
17178;DHT22;8704;52.006;4.374;2024-01-30T09:49:20;10.20;1.00
17178;DHT22;8704;52.006;4.374;2024-01-30T09:51:48;10.10;1.00
17178;DHT22;8704;52.006;4.374;2024-01-30T09:54:18;10.10;1.00
17178;DHT22;8704;52.006;4.374;2024-01-30T09:56:47;10.20;1.00
17178;DHT22;8704;52.006;4.374;2024-01-30T09:59:15;10.40;1.00
17178;DHT22;8704;52.006;4.374;2024-01-30T10:01:44;10.70;1.00
17178;DHT22;8704;52.006;4.374;2024-01-30T10:04:13;10.10;1.00
17178;DHT22;8704;52.006;4.374;2024-01-30T10:06:42;9.90;1.00
17178;DHT22;8704;52.006;4.374;2024-01-30T10:09:11;10.30;99.90
17178;DHT22;8704;52.006;4.374;2024-01-30T10:11:40;10.50;99.90
17178;DHT22;8704;52.006;4.374;2024-01-30T10:14:08;10.00;99.90
17178;DHT22;8704;52.006;4.374;2024-01-30T10:16:36;10.50;99.90
17178;DHT22;8704;52.006;4.374;2024-01-30T10:19:04;10.70;99.90
17178;DHT22;8704;52.006;4.374;2024-01-30T10:21:32;10.00;99.90
17178;DHT22;8704;52.006;4.374;2024-01-30T10:24:01;10.50;99.90
17178;DHT22;8704;52.006;4.374;2024-01-30T10:26:30;10.00;99.90
17178;DHT22;8704;52.006;4.374;2024-01-30T10:29:01;9.90;99.90
17178;DHT22;8704;52.006;4.374;2024-01-30T10:31:29;10.00;99.90
17178;DHT22;8704;52.006;4.374;2024-01-30T10:33:57;9.80;99.90
17178;DHT22;8704;52.006;4.374;2024-01-30T10:36:43;9.90;99.90
17178;DHT22;8704;52.006;4.374;2024-01-30T10:39:17;9.70;99.90
17178;DHT22;8704;52.006;4.374;2024-01-30T10:41:47;9.90;1.00
17178;DHT22;8704;52.006;4.374;2024-01-30T10:44:19;10.00;1.00
17178;DHT22;8704;52.006;4.374;2024-01-30T10:46:53;9.70;1.00
17178;DHT22;8704;52.006;4.374;2024-01-30T10:49:23;10.20;1.00
17178;DHT22;8704;52.006;4.374;2024-01-30T10:51:52;9.80;1.00
17178;DHT22;8704;52.006;4.374;2024-01-30T10:54:23;10.00;1.00
17178;DHT22;8704;52.006;4.374;2024-01-30T10:56:53;10.10;1.00
17178;DHT22;8704;52.006;4.374;2024-01-30T10:59:23;10.10;99.90
17178;DHT22;8704;52.006;4.374;2024-01-30T11:01:52;9.70;99.90
17178;DHT22;8704;52.006;4.374;2024-01-30T11:04:20;9.50;99.90
17178;DHT22;8704;52.006;4.374;2024-01-30T11:06:49;9.40;1.00
17178;DHT22;8704;52.006;4.374;2024-01-30T11:09:18;9.10;1.00
17178;DHT22;8704;52.006;4.374;2024-01-30T11:11:52;9.50;1.00
17178;DHT22;8704;52.006;4.374;2024-01-30T11:14:28;9.50;1.00
17178;DHT22;8704;52.006;4.374;2024-01-30T11:16:57;9.10;1.00
17178;DHT22;8704;52.006;4.374;2024-01-30T11:19:26;9.30;1.00
17178;DHT22;8704;52.006;4.374;2024-01-30T11:21:55;9.20;1.00
17178;DHT22;8704;52.006;4.374;2024-01-30T11:24:24;9.20;1.00
17178;DHT22;8704;52.006;4.374;2024-01-30T11:26:57;9.30;1.00
17178;DHT22;8704;52.006;4.374;2024-01-30T11:29:27;9.20;1.00
17178;DHT22;8704;52.006;4.374;2024-01-30T11:31:57;8.60;1.00
17178;DHT22;8704;52.006;4.374;2024-01-30T11:34:25;9.60;1.00
17178;DHT22;8704;52.006;4.374;2024-01-30T11:36:57;9.20;99.90
17178;DHT22;8704;52.006;4.374;2024-01-30T11:39:26;9.50;99.90
17178;DHT22;8704;52.006;4.374;2024-01-30T11:41:55;9.30;1.00
17178;DHT22;8704;52.006;4.374;2024-01-30T11:44:24;9.30;99.90
17178;DHT22;8704;52.006;4.374;2024-01-30T11:46:52;9.40;99.90
17178;DHT22;8704;52.006;4.374;2024-01-30T11:49:21;9.00;99.90
17178;DHT22;8704;52.006;4.374;2024-01-30T11:51:49;9.30;99.90
17178;DHT22;8704;52.006;4.374;2024-01-30T11:54:18;9.40;24.30
17178;DHT22;8704;52.006;4.374;2024-01-30T11:56:46;9.80;99.90
17178;DHT22;8704;52.006;4.374;2024-01-30T11:59:14;9.40;78.20
17178;DHT22;8704;52.006;4.374;2024-01-30T12:01:46;9.20;1.00
17178;DHT22;8704;52.006;4.374;2024-01-30T12:04:15;9.50;99.90
17178;DHT22;8704;52.006;4.374;2024-01-30T12:06:43;9.70;99.90
17178;DHT22;8704;52.006;4.374;2024-01-30T12:09:12;9.70;99.90
17178;DHT22;8704;52.006;4.374;2024-01-30T12:11:44;9.70;99.90
17178;DHT22;8704;52.006;4.374;2024-01-30T12:14:12;9.20;99.90
17178;DHT22;8704;52.006;4.374;2024-01-30T12:16:42;9.60;99.90
17178;DHT22;8704;52.006;4.374;2024-01-30T12:19:10;9.00;99.90
17178;DHT22;8704;52.006;4.374;2024-01-30T12:21:39;9.40;1.00
17178;DHT22;8704;52.006;4.374;2024-01-30T12:24:07;9.50;1.00
17178;DHT22;8704;52.006;4.374;2024-01-30T12:26:35;9.70;1.00
17178;DHT22;8704;52.006;4.374;2024-01-30T12:29:04;9.10;1.00
17178;DHT22;8704;52.006;4.374;2024-01-30T12:31:32;9.20;1.00
17178;DHT22;8704;52.006;4.374;2024-01-30T12:34:02;9.30;1.00
17178;DHT22;8704;52.006;4.374;2024-01-30T12:36:31;9.10;1.00
17178;DHT22;8704;52.006;4.374;2024-01-30T12:38:59;9.20;1.00
17178;DHT22;8704;52.006;4.374;2024-01-30T12:41:27;9.30;1.00
17178;DHT22;8704;52.006;4.374;2024-01-30T12:43:57;9.00;1.00
17178;DHT22;8704;52.006;4.374;2024-01-30T12:46:27;9.10;1.00
17178;DHT22;8704;52.006;4.374;2024-01-30T12:48:56;9.10;29.30
17178;DHT22;8704;52.006;4.374;2024-01-30T12:51:26;9.30;99.90
17178;DHT22;8704;52.006;4.374;2024-01-30T12:53:54;9.10;1.00
17178;DHT22;8704;52.006;4.374;2024-01-30T12:56:22;9.50;1.00
17178;DHT22;8704;52.006;4.374;2024-01-30T12:58:50;9.10;99.90
17178;DHT22;8704;52.006;4.374;2024-01-30T13:01:21;9.10;99.90
17178;DHT22;8704;52.006;4.374;2024-01-30T13:03:49;9.20;99.90
17178;DHT22;8704;52.006;4.374;2024-01-30T13:06:18;9.00;1.00
17178;DHT22;8704;52.006;4.374;2024-01-30T13:08:48;9.30;1.00
17178;DHT22;8704;52.006;4.374;2024-01-30T13:11:16;9.10;66.40
17178;DHT22;8704;52.006;4.374;2024-01-30T13:13:47;9.40;99.90
17178;DHT22;8704;52.006;4.374;2024-01-30T13:16:16;9.20;1.00
17178;DHT22;8704;52.006;4.374;2024-01-30T13:18:44;9.00;1.00
17178;DHT22;8704;52.006;4.374;2024-01-30T13:21:12;9.20;1.00
17178;DHT22;8704;52.006;4.374;2024-01-30T13:23:40;8.90;99.90
17178;DHT22;8704;52.006;4.374;2024-01-30T13:26:10;9.40;99.90
17178;DHT22;8704;52.006;4.374;2024-01-30T13:28:38;9.30;99.90
17178;DHT22;8704;52.006;4.374;2024-01-30T13:31:06;9.30;1.00
17178;DHT22;8704;52.006;4.374;2024-01-30T13:33:34;8.80;1.00
17178;DHT22;8704;52.006;4.374;2024-01-30T13:36:03;9.10;99.90
17178;DHT22;8704;52.006;4.374;2024-01-30T13:38:31;8.70;1.00
17178;DHT22;8704;52.006;4.374;2024-01-30T13:40:59;9.10;54.30
17178;DHT22;8704;52.006;4.374;2024-01-30T13:43:29;9.30;99.90
17178;DHT22;8704;52.006;4.374;2024-01-30T13:45:57;8.70;99.90
17178;DHT22;8704;52.006;4.374;2024-01-30T13:48:25;9.10;1.00
17178;DHT22;8704;52.006;4.374;2024-01-30T13:50:54;9.40;1.00
17178;DHT22;8704;52.006;4.374;2024-01-30T13:53:22;8.80;99.90
17178;DHT22;8704;52.006;4.374;2024-01-30T13:55:50;8.70;99.90
17178;DHT22;8704;52.006;4.374;2024-01-30T13:58:18;9.20;99.90
17178;DHT22;8704;52.006;4.374;2024-01-30T14:00:48;9.20;99.90
17178;DHT22;8704;52.006;4.374;2024-01-30T14:03:17;8.80;99.90
17178;DHT22;8704;52.006;4.374;2024-01-30T14:05:45;8.60;99.90
17178;DHT22;8704;52.006;4.374;2024-01-30T14:08:13;8.80;1.00
17178;DHT22;8704;52.006;4.374;2024-01-30T14:10:41;8.50;99.90
17178;DHT22;8704;52.006;4.374;2024-01-30T14:13:10;8.30;1.00
17178;DHT22;8704;52.006;4.374;2024-01-30T14:15:38;9.00;1.00
17178;DHT22;8704;52.006;4.374;2024-01-30T14:18:08;8.70;1.00
17178;DHT22;8704;52.006;4.374;2024-01-30T14:20:38;8.70;1.00
17178;DHT22;8704;52.006;4.374;2024-01-30T14:23:06;8.70;1.00
17178;DHT22;8704;52.006;4.374;2024-01-30T14:25:34;8.50;1.00
17178;DHT22;8704;52.006;4.374;2024-01-30T14:28:02;8.30;1.00
17178;DHT22;8704;52.006;4.374;2024-01-30T14:30:32;8.50;1.00
17178;DHT22;8704;52.006;4.374;2024-01-30T14:33:00;8.80;99.90
17178;DHT22;8704;52.006;4.374;2024-01-30T14:35:29;8.40;99.90
17178;DHT22;8704;52.006;4.374;2024-01-30T14:37:57;8.90;99.90
17178;DHT22;8704;52.006;4.374;2024-01-30T14:40:26;8.40;99.90
17178;DHT22;8704;52.006;4.374;2024-01-30T14:42:54;8.80;1.00
17178;DHT22;8704;52.006;4.374;2024-01-30T14:45:22;8.70;1.00
17178;DHT22;8704;52.006;4.374;2024-01-30T14:47:50;8.50;1.00
17178;DHT22;8704;52.006;4.374;2024-01-30T14:50:20;8.80;1.00
17178;DHT22;8704;52.006;4.374;2024-01-30T14:52:49;8.70;1.00
17178;DHT22;8704;52.006;4.374;2024-01-30T14:55:17;8.70;1.00
17178;DHT22;8704;52.006;4.374;2024-01-30T14:57:45;8.60;1.00
17178;DHT22;8704;52.006;4.374;2024-01-30T15:00:16;8.90;1.00
17178;DHT22;8704;52.006;4.374;2024-01-30T15:02:44;8.50;1.00
17178;DHT22;8704;52.006;4.374;2024-01-30T15:05:14;8.80;88.50
17178;DHT22;8704;52.006;4.374;2024-01-30T15:07:43;8.50;99.90
17178;DHT22;8704;52.006;4.374;2024-01-30T15:10:12;8.90;99.90
17178;DHT22;8704;52.006;4.374;2024-01-30T15:12:41;8.40;99.90
17178;DHT22;8704;52.006;4.374;2024-01-30T15:15:09;8.40;99.90
17178;DHT22;8704;52.006;4.374;2024-01-30T15:17:38;8.60;99.90
17178;DHT22;8704;52.006;4.374;2024-01-30T15:20:07;8.70;99.90
17178;DHT22;8704;52.006;4.374;2024-01-30T15:22:36;8.20;99.90
17178;DHT22;8704;52.006;4.374;2024-01-30T15:25:05;8.80;1.00
17178;DHT22;8704;52.006;4.374;2024-01-30T15:27:35;8.30;1.00
17178;DHT22;8704;52.006;4.374;2024-01-30T15:30:03;8.90;1.00
17178;DHT22;8704;52.006;4.374;2024-01-30T15:32:32;8.40;99.90
17178;DHT22;8704;52.006;4.374;2024-01-30T15:35:00;8.50;1.00
17178;DHT22;8704;52.006;4.374;2024-01-30T15:37:31;8.60;1.00
17178;DHT22;8704;52.006;4.374;2024-01-30T15:40:00;8.40;1.00
17178;DHT22;8704;52.006;4.374;2024-01-30T15:42:29;8.70;1.00
17178;DHT22;8704;52.006;4.374;2024-01-30T15:44:58;8.20;1.00
17178;DHT22;8704;52.006;4.374;2024-01-30T15:47:27;8.60;1.00
17178;DHT22;8704;52.006;4.374;2024-01-30T15:49:55;8.80;1.00
17178;DHT22;8704;52.006;4.374;2024-01-30T15:52:23;8.80;1.00
17178;DHT22;8704;52.006;4.374;2024-01-30T15:54:51;8.90;99.90
17178;DHT22;8704;52.006;4.374;2024-01-30T15:57:20;9.00;99.90
17178;DHT22;8704;52.006;4.374;2024-01-30T15:59:48;8.70;99.90
17178;DHT22;8704;52.006;4.374;2024-01-30T16:02:17;8.20;99.90
17178;DHT22;8704;52.006;4.374;2024-01-30T16:04:47;8.60;99.90
17178;DHT22;8704;52.006;4.374;2024-01-30T16:07:16;8.50;99.90
17178;DHT22;8704;52.006;4.374;2024-01-30T16:09:44;8.60;1.00
17178;DHT22;8704;52.006;4.374;2024-01-30T16:12:12;8.60;1.00
17178;DHT22;8704;52.006;4.374;2024-01-30T16:14:42;8.50;1.00
17178;DHT22;8704;52.006;4.374;2024-01-30T16:17:10;8.30;1.00